createdAt,value
2023-01-09T00:01:25.604Z,67.45
2023-01-09T00:03:53.406Z,67.51
2023-01-09T00:06:21.595Z,67.14
2023-01-09T00:08:49.511Z,66.90
2023-01-09T00:11:18.754Z,67.15
2023-01-09T00:13:47.192Z,66.97
2023-01-09T00:16:15.026Z,67.19
2023-01-09T00:18:42.857Z,67.31
2023-01-09T00:21:12.937Z,67.23
2023-01-09T00:23:41.034Z,67.00
2023-01-09T00:26:10.855Z,67.06
2023-01-09T00:28:40.389Z,66.91
2023-01-09T00:31:09.659Z,66.94
2023-01-09T00:33:40.447Z,67.00
2023-01-09T00:36:08.842Z,66.82
2023-01-09T00:38:37.297Z,66.81
2023-01-09T00:41:07.128Z,67.12
2023-01-09T00:43:39.566Z,66.77
2023-01-09T00:46:09.287Z,66.82
2023-01-09T00:48:39.860Z,66.84
2023-01-09T00:51:08.247Z,66.62
2023-01-09T00:53:38.877Z,66.58
2023-01-09T00:56:11.313Z,66.86
2023-01-09T00:58:39.179Z,66.69
2023-01-09T01:01:08.815Z,66.86
2023-01-09T01:03:36.866Z,66.75
2023-01-09T01:06:22.491Z,66.85
2023-01-09T01:08:50.458Z,66.97
2023-01-09T01:11:18.247Z,66.78
2023-01-09T01:13:46.055Z,66.75
2023-01-09T01:16:15.317Z,66.98
2023-01-09T01:18:43.252Z,66.74
2023-01-09T01:21:14.184Z,66.42
2023-01-09T01:23:42.342Z,66.41
2023-01-09T01:26:13.524Z,66.63
2023-01-09T01:28:42.285Z,66.60
2023-01-09T01:31:10.609Z,66.67
2023-01-09T01:33:39.915Z,66.44
2023-01-09T01:36:09.875Z,66.39
2023-01-09T01:38:37.752Z,66.44
2023-01-09T01:41:06.999Z,66.40
2023-01-09T01:43:53.736Z,66.50
2023-01-09T01:46:21.521Z,66.43
2023-01-09T01:48:55.486Z,66.53
2023-01-09T01:51:25.905Z,66.20
2023-01-09T01:53:58.575Z,66.67
2023-01-09T01:56:29.828Z,66.40
2023-01-09T01:59:02.684Z,66.24
2023-01-09T02:01:31.482Z,66.59
2023-01-09T02:04:03.979Z,66.51
2023-01-09T02:06:34.502Z,66.53
2023-01-09T02:09:04.340Z,66.49
2023-01-09T02:11:32.221Z,66.61
2023-01-09T02:14:01.377Z,66.25
2023-01-09T02:16:42.235Z,66.20
2023-01-09T02:19:30.678Z,66.54
2023-01-09T02:22:08.609Z,66.22
2023-01-09T02:25:04.649Z,66.04
2023-01-09T02:28:00.445Z,66.27
2023-01-09T02:30:36.188Z,66.25
2023-01-09T02:33:21.592Z,66.25
2023-01-09T02:36:04.351Z,66.38
2023-01-09T02:38:37.501Z,66.09
2023-01-09T02:41:12.350Z,66.43
2023-01-09T02:43:41.653Z,66.42
2023-01-09T02:46:20.473Z,66.42
2023-01-09T02:48:51.976Z,66.17
2023-01-09T02:51:28.884Z,66.06
2023-01-09T02:54:12.757Z,66.22
2023-01-09T02:57:15.619Z,66.12
2023-01-09T02:59:57.583Z,66.31
2023-01-09T03:02:41.273Z,66.10
2023-01-09T03:05:15.315Z,66.50
2023-01-09T03:07:48.603Z,66.49
2023-01-09T03:10:22.418Z,66.20
2023-01-09T03:12:54.291Z,66.32
2023-01-09T03:15:26.990Z,66.39
2023-01-09T03:17:56.879Z,65.91
2023-01-09T03:20:27.826Z,65.91
2023-01-09T03:22:58.009Z,66.01
2023-01-09T03:25:27.580Z,65.99
2023-01-09T03:27:58.006Z,66.31
2023-01-09T03:30:27.622Z,65.89
2023-01-09T03:32:57.429Z,65.95
2023-01-09T03:35:25.882Z,65.67
2023-01-09T03:37:53.910Z,66.23
2023-01-09T03:40:22.311Z,66.44
2023-01-09T03:42:50.057Z,66.14
2023-01-09T03:45:17.978Z,66.31
2023-01-09T03:47:45.741Z,66.28
2023-01-09T03:50:14.962Z,66.23
2023-01-09T03:52:42.758Z,65.81
2023-01-09T03:55:10.735Z,65.82
2023-01-09T03:57:38.524Z,65.86
2023-01-09T04:00:08.473Z,66.50
2023-01-09T04:02:36.236Z,65.92
2023-01-09T04:05:04.069Z,66.24
2023-01-09T04:07:33.224Z,65.71
2023-01-09T04:10:01.062Z,66.15
2023-01-09T04:12:29.013Z,66.29
2023-01-09T04:14:56.742Z,66.52
2023-01-09T04:17:24.557Z,66.08
2023-01-09T04:19:52.340Z,66.08
2023-01-09T04:22:20.219Z,65.91
2023-01-09T04:24:49.411Z,66.11
2023-01-09T04:27:17.195Z,65.96
2023-01-09T04:29:44.983Z,65.88
2023-01-09T04:32:12.765Z,65.74
2023-01-09T04:34:40.563Z,66.20
2023-01-09T04:37:08.665Z,66.49
2023-01-09T04:39:37.297Z,66.03
2023-01-09T04:42:06.544Z,65.88
2023-01-09T04:44:34.337Z,66.14
2023-01-09T04:47:02.117Z,65.77
2023-01-09T04:49:29.961Z,65.92
2023-01-09T04:51:57.878Z,66.26
2023-01-09T04:54:25.701Z,66.45
2023-01-09T04:56:53.439Z,66.25
2023-01-09T04:59:22.863Z,66.44
2023-01-09T05:01:52.172Z,65.82
2023-01-09T05:04:20.089Z,66.35
2023-01-09T05:06:47.959Z,65.84
2023-01-09T05:09:15.740Z,66.15
2023-01-09T05:11:43.568Z,66.38
2023-01-09T05:14:12.840Z,66.59
2023-01-09T05:16:42.063Z,66.44
2023-01-09T05:19:09.869Z,66.03
2023-01-09T05:21:37.844Z,65.96
2023-01-09T05:24:06.116Z,65.99
2023-01-09T05:26:33.954Z,66.10
2023-01-09T05:29:01.754Z,66.26
2023-01-09T05:31:29.555Z,65.93
2023-01-09T05:33:59.321Z,66.48
2023-01-09T05:36:28.206Z,65.87
2023-01-09T05:38:57.805Z,66.34
2023-01-09T05:41:26.464Z,66.00
2023-01-09T05:43:54.487Z,66.04
2023-01-09T05:46:22.246Z,65.99
2023-01-09T05:48:50.099Z,65.95
2023-01-09T05:51:19.416Z,66.34
2023-01-09T05:53:47.217Z,66.54
2023-01-09T05:56:15.104Z,66.62
2023-01-09T05:58:43.182Z,66.34
2023-01-09T06:01:11.106Z,66.53
2023-01-09T06:03:38.972Z,65.92
2023-01-09T06:06:07.433Z,65.98
2023-01-09T06:08:36.582Z,66.26
2023-01-09T06:11:04.404Z,66.46
2023-01-09T06:13:32.563Z,67.56
2023-01-09T06:16:00.366Z,66.36
2023-01-09T06:18:28.195Z,65.52
2023-01-09T06:20:56.035Z,65.75
2023-01-09T06:23:24.002Z,65.52
2023-01-09T06:25:53.134Z,64.71
2023-01-09T06:28:20.917Z,64.06
2023-01-09T06:30:51.792Z,64.23
2023-01-09T06:33:20.006Z,64.49
2023-01-09T06:35:47.814Z,64.77
2023-01-09T06:38:15.616Z,65.09
2023-01-09T06:40:43.567Z,65.04
2023-01-09T06:43:12.703Z,65.37
2023-01-09T06:45:40.874Z,65.34
2023-01-09T06:48:08.907Z,65.36
2023-01-09T06:50:36.826Z,65.82
2023-01-09T06:53:04.824Z,66.06
2023-01-09T06:55:32.572Z,65.92
2023-01-09T06:58:00.449Z,66.06
2023-01-09T07:00:29.742Z,66.06
2023-01-09T07:02:57.748Z,66.31
2023-01-09T07:05:25.601Z,66.55
2023-01-09T07:07:53.369Z,66.02
2023-01-09T07:10:21.149Z,66.08
2023-01-09T07:12:48.918Z,66.34
2023-01-09T07:15:16.793Z,66.21
2023-01-09T07:17:46.048Z,66.53
2023-01-09T07:20:13.830Z,66.38
2023-01-09T07:22:42.940Z,66.81
2023-01-09T07:25:10.889Z,67.04
2023-01-09T07:27:38.724Z,66.82
2023-01-09T07:30:08.049Z,66.52
2023-01-09T07:32:36.209Z,66.37
2023-01-09T07:35:05.949Z,66.69
2023-01-09T07:37:34.236Z,66.50
2023-01-09T07:40:02.118Z,66.66
2023-01-09T07:42:29.954Z,66.62
2023-01-09T07:44:57.748Z,66.72
2023-01-09T07:47:25.510Z,66.29
2023-01-09T07:49:53.311Z,66.26
2023-01-09T07:52:23.044Z,66.81
2023-01-09T07:54:51.020Z,66.52
2023-01-09T07:57:18.777Z,66.28
2023-01-09T07:59:46.756Z,66.63
2023-01-09T08:02:14.623Z,66.60
2023-01-09T08:04:42.408Z,66.81
2023-01-09T08:07:10.333Z,66.60
2023-01-09T08:09:39.659Z,66.97
2023-01-09T08:12:07.619Z,66.47
2023-01-09T08:14:36.070Z,66.99
2023-01-09T08:17:03.945Z,67.15
2023-01-09T08:19:31.780Z,67.09
2023-01-09T08:21:59.673Z,66.75
2023-01-09T08:24:27.561Z,67.01
2023-01-09T08:26:56.848Z,66.75
2023-01-09T08:29:24.641Z,67.16
2023-01-09T08:31:52.477Z,66.88
2023-01-09T08:34:20.332Z,67.28
2023-01-09T08:36:48.105Z,67.15
2023-01-09T08:39:15.882Z,67.03
2023-01-09T08:42:00.995Z,67.37
2023-01-09T08:44:47.457Z,67.17
2023-01-09T08:47:17.501Z,67.19
2023-01-09T08:49:45.389Z,66.90
2023-01-09T08:52:13.747Z,67.18
2023-01-09T08:54:41.753Z,66.87
2023-01-09T08:57:09.763Z,67.18
2023-01-09T08:59:38.863Z,66.77
2023-01-09T09:02:06.710Z,66.28
2023-01-09T09:04:34.533Z,65.93
2023-01-09T09:07:02.544Z,65.59
2023-01-09T09:09:30.343Z,64.99
2023-01-09T09:11:58.150Z,64.23
2023-01-09T09:14:43.503Z,63.60
2023-01-09T09:17:12.788Z,63.22
2023-01-09T09:19:42.670Z,62.65
2023-01-09T09:22:10.500Z,62.20
2023-01-09T09:24:38.401Z,61.91
2023-01-09T09:27:06.187Z,61.68
2023-01-09T09:29:34.009Z,61.78
2023-01-09T09:32:01.815Z,62.01
2023-01-09T09:34:31.017Z,62.80
2023-01-09T09:36:58.963Z,63.59
2023-01-09T09:39:26.883Z,63.92
2023-01-09T09:42:34.924Z,64.61
2023-01-09T09:45:27.452Z,64.61
2023-01-09T09:48:08.027Z,64.86
2023-01-09T09:50:55.913Z,64.29
2023-01-09T09:53:30.783Z,63.67
2023-01-09T09:55:58.896Z,63.10
2023-01-09T09:58:32.730Z,62.38
2023-01-09T10:01:02.696Z,61.69
2023-01-09T10:03:38.378Z,61.42
2023-01-09T10:06:12.514Z,61.34
2023-01-09T10:08:48.087Z,60.82
2023-01-09T10:11:21.560Z,60.61
2023-01-09T10:14:22.976Z,60.43
2023-01-09T10:17:08.798Z,60.13
2023-01-09T10:19:49.690Z,60.17
2023-01-09T10:22:26.197Z,60.30
2023-01-09T10:25:05.853Z,60.24
2023-01-09T10:27:44.669Z,60.27
2023-01-09T10:30:29.283Z,60.41
2023-01-09T10:33:07.875Z,60.17
2023-01-09T10:35:50.348Z,60.16
2023-01-09T10:38:24.349Z,60.30
2023-01-09T10:41:01.602Z,60.56
2023-01-09T10:43:35.549Z,60.28
2023-01-09T10:46:08.737Z,60.40
2023-01-09T10:48:39.601Z,60.26
2023-01-09T10:51:19.033Z,60.45
2023-01-09T10:53:52.319Z,60.58
2023-01-09T10:56:24.438Z,61.09
2023-01-09T10:58:53.628Z,61.69
2023-01-09T11:01:26.915Z,62.48
2023-01-09T11:03:54.976Z,63.03
2023-01-09T11:06:26.383Z,63.73
2023-01-09T11:09:00.212Z,64.05
2023-01-09T11:11:36.131Z,64.07
2023-01-09T11:14:14.680Z,64.86
2023-01-09T11:16:53.088Z,64.95
2023-01-09T11:19:21.627Z,64.74
2023-01-09T11:21:49.947Z,65.21
2023-01-09T11:24:36.758Z,65.15
2023-01-09T11:27:25.562Z,65.45
2023-01-09T11:30:15.646Z,65.93
2023-01-09T11:32:44.506Z,65.82
2023-01-09T11:35:20.515Z,65.71
2023-01-09T11:37:51.335Z,64.91
2023-01-09T11:40:22.849Z,64.30
2023-01-09T11:43:06.094Z,63.52
2023-01-09T11:45:35.925Z,63.03
2023-01-09T11:48:18.392Z,62.56
2023-01-09T11:50:56.709Z,61.56
2023-01-09T11:53:25.475Z,61.29
2023-01-09T11:56:01.067Z,61.05
2023-01-09T11:58:34.918Z,60.83
2023-01-09T12:01:15.813Z,61.07
2023-01-09T12:04:02.402Z,61.61
2023-01-09T12:06:37.878Z,62.44
2023-01-09T12:09:09.081Z,62.81
2023-01-09T12:11:49.787Z,63.30
2023-01-09T12:14:35.820Z,63.82
2023-01-09T12:17:28.482Z,64.31
2023-01-09T12:20:25.812Z,64.52
2023-01-09T12:23:02.692Z,64.60
2023-01-09T12:25:41.567Z,64.81
2023-01-09T12:28:31.773Z,65.13
2023-01-09T12:31:10.328Z,65.51
2023-01-09T12:33:48.056Z,65.49
2023-01-09T12:36:23.239Z,65.87
2023-01-09T12:38:56.267Z,66.28
2023-01-09T12:41:45.812Z,66.37
2023-01-09T12:44:35.944Z,66.29
2023-01-09T12:47:22.713Z,66.51
2023-01-09T12:49:59.922Z,66.46
2023-01-09T12:52:35.646Z,66.89
2023-01-09T12:55:13.380Z,66.64
2023-01-09T12:57:44.872Z,66.71
2023-01-09T13:00:19.854Z,66.86
2023-01-09T13:03:03.594Z,67.36
2023-01-09T13:05:43.915Z,67.13
2023-01-09T13:08:16.678Z,67.46
2023-01-09T13:10:48.736Z,67.23
2023-01-09T13:13:21.711Z,67.01
2023-01-09T13:15:54.599Z,66.19
2023-01-09T13:18:28.720Z,65.15
2023-01-09T13:20:58.041Z,64.75
2023-01-09T13:23:39.805Z,64.43
2023-01-09T13:26:11.772Z,64.25
2023-01-09T13:28:46.996Z,63.75
2023-01-09T13:31:33.745Z,63.46
2023-01-09T13:34:04.582Z,63.86
2023-01-09T13:36:39.429Z,64.19
2023-01-09T13:39:08.014Z,64.55
2023-01-09T13:42:06.316Z,64.94
2023-01-09T13:44:34.657Z,65.36
2023-01-09T13:47:04.557Z,65.31
2023-01-09T13:49:54.010Z,65.76
2023-01-09T13:52:36.555Z,66.08
2023-01-09T13:55:36.088Z,66.35
2023-01-09T13:58:24.452Z,66.59
2023-01-09T14:00:55.364Z,66.97
2023-01-09T14:03:29.466Z,66.87
2023-01-09T14:06:25.166Z,66.87
2023-01-09T14:09:18.225Z,66.99
2023-01-09T14:11:47.768Z,67.07
2023-01-09T14:14:27.417Z,67.22
2023-01-09T14:16:55.709Z,67.58
2023-01-09T14:19:35.394Z,67.51
2023-01-09T14:22:04.776Z,67.43
2023-01-09T14:24:41.047Z,67.46
2023-01-09T14:27:47.842Z,67.40
2023-01-09T14:30:33.417Z,67.45
2023-01-09T14:33:03.471Z,67.22
2023-01-09T14:35:42.894Z,67.42
2023-01-09T14:38:30.301Z,67.54
2023-01-09T14:41:02.903Z,67.72
2023-01-09T14:43:46.545Z,67.79
2023-01-09T14:46:17.487Z,67.42
2023-01-09T14:48:58.299Z,67.56
2023-01-09T14:51:32.194Z,67.57
2023-01-09T14:54:02.204Z,67.83
2023-01-09T14:56:31.936Z,67.86
2023-01-09T14:59:07.615Z,67.73
2023-01-09T15:01:37.464Z,67.99
2023-01-09T15:04:12.686Z,68.13
2023-01-09T15:06:44.537Z,68.15
2023-01-09T15:09:23.030Z,68.17
2023-01-09T15:11:51.639Z,68.22
2023-01-09T15:14:30.013Z,68.62
2023-01-09T15:16:58.268Z,68.25
2023-01-09T15:19:26.333Z,68.66
2023-01-09T15:22:01.342Z,68.53
2023-01-09T15:24:32.378Z,68.20
2023-01-09T15:27:02.492Z,68.52
2023-01-09T15:29:30.622Z,68.49
2023-01-09T15:32:04.554Z,68.33
2023-01-09T15:34:33.888Z,68.38
2023-01-09T15:37:03.610Z,68.10
2023-01-09T15:39:37.371Z,68.01
2023-01-09T15:42:23.392Z,67.78
2023-01-09T15:44:53.841Z,68.01
2023-01-09T15:47:27.792Z,67.94
2023-01-09T15:49:57.848Z,67.83
2023-01-09T15:52:27.337Z,67.79
2023-01-09T15:54:55.652Z,67.88
2023-01-09T15:57:35.855Z,67.91
2023-01-09T16:00:42.513Z,67.95
2023-01-09T16:03:21.525Z,68.26
2023-01-09T16:05:57.970Z,68.09
2023-01-09T16:08:32.697Z,67.98
2023-01-09T16:11:04.098Z,68.23
2023-01-09T16:13:34.521Z,68.39
2023-01-09T16:16:03.802Z,68.35
2023-01-09T16:18:34.564Z,68.00
2023-01-09T16:21:05.457Z,68.16
2023-01-09T16:23:36.848Z,68.32
2023-01-09T16:26:06.987Z,68.23
2023-01-09T16:28:34.783Z,67.64
2023-01-09T16:31:05.138Z,67.98
2023-01-09T16:33:34.175Z,68.10
2023-01-09T16:36:03.418Z,68.09
2023-01-09T16:38:31.301Z,67.66
2023-01-09T16:41:22.506Z,67.62
2023-01-09T16:43:51.680Z,67.10
2023-01-09T16:46:21.191Z,67.30
2023-01-09T16:48:49.186Z,67.44
2023-01-09T16:51:19.382Z,67.14
2023-01-09T16:53:47.214Z,67.27
2023-01-09T16:56:19.995Z,66.97
2023-01-09T16:58:47.948Z,66.82
2023-01-09T17:01:16.043Z,66.96
2023-01-09T17:03:44.574Z,66.83
2023-01-09T17:06:17.162Z,66.76
2023-01-09T17:08:45.310Z,66.04
2023-01-09T17:11:21.638Z,65.35
2023-01-09T17:13:49.524Z,64.73
2023-01-09T17:16:18.512Z,63.92
2023-01-09T17:18:46.637Z,63.27
2023-01-09T17:21:18.573Z,62.68
2023-01-09T17:23:46.671Z,62.08
2023-01-09T17:26:37.324Z,61.52
2023-01-09T17:29:05.647Z,61.52
2023-01-09T17:31:33.512Z,61.84
2023-01-09T17:34:01.367Z,62.36
2023-01-09T17:36:32.397Z,63.00
2023-01-09T17:39:00.723Z,63.47
2023-01-09T17:41:31.677Z,63.70
2023-01-09T17:44:00.625Z,64.08
2023-01-09T17:46:31.112Z,64.70
2023-01-09T17:48:59.768Z,64.80
2023-01-09T17:51:27.612Z,65.10
2023-01-09T17:53:55.470Z,65.09
2023-01-09T17:56:26.865Z,65.56
2023-01-09T17:58:56.436Z,65.26
2023-01-09T18:01:24.306Z,65.48
2023-01-09T18:03:52.211Z,65.58
2023-01-09T18:06:22.371Z,66.11
2023-01-09T18:08:50.649Z,65.75
2023-01-09T18:11:20.373Z,65.30
2023-01-09T18:13:49.979Z,64.75
2023-01-09T18:16:20.965Z,64.31
2023-01-09T18:18:48.836Z,63.62
2023-01-09T18:21:20.143Z,63.10
2023-01-09T18:23:50.021Z,62.38
2023-01-09T18:26:21.234Z,62.18
2023-01-09T18:28:50.881Z,62.12
2023-01-09T18:31:22.819Z,62.70
2023-01-09T18:33:52.889Z,62.88
2023-01-09T18:36:22.013Z,63.42
2023-01-09T18:38:53.749Z,63.92
2023-01-09T18:41:22.595Z,63.97
2023-01-09T18:43:50.847Z,63.87
2023-01-09T18:46:24.067Z,64.39
2023-01-09T18:48:53.295Z,64.52
2023-01-09T18:51:22.053Z,64.02
2023-01-09T18:53:49.927Z,64.07
2023-01-09T18:56:19.422Z,64.12
2023-01-09T18:58:47.285Z,64.32
2023-01-09T19:01:15.413Z,63.99
2023-01-09T19:03:45.330Z,64.39
2023-01-09T19:06:13.475Z,63.80
2023-01-09T19:08:41.451Z,64.01
2023-01-09T19:11:09.400Z,63.95
2023-01-09T19:13:38.245Z,64.23
2023-01-09T19:16:08.066Z,64.10
2023-01-09T19:18:37.382Z,64.25
2023-01-09T19:21:12.672Z,64.69
2023-01-09T19:23:41.828Z,64.96
2023-01-09T19:26:16.182Z,64.85
2023-01-09T19:28:45.465Z,64.62
2023-01-09T19:31:13.634Z,64.27
2023-01-09T19:33:41.536Z,64.00
2023-01-09T19:36:11.026Z,63.99
2023-01-09T19:38:38.958Z,63.98
2023-01-09T19:41:13.192Z,64.13
2023-01-09T19:43:41.273Z,64.40
2023-01-09T19:46:10.697Z,64.66
2023-01-09T19:48:38.829Z,64.62
2023-01-09T19:51:08.941Z,65.14
2023-01-09T19:53:38.510Z,65.27
2023-01-09T19:56:10.900Z,65.52
2023-01-09T19:58:38.830Z,65.67
2023-01-09T20:01:08.944Z,65.55
2023-01-09T20:03:37.824Z,66.10
2023-01-09T20:06:07.229Z,66.25
2023-01-09T20:08:35.169Z,66.23
2023-01-09T20:11:06.670Z,66.37
2023-01-09T20:13:34.854Z,66.38
2023-01-09T20:16:03.715Z,66.48
2023-01-09T20:18:32.742Z,66.66
2023-01-09T20:21:00.530Z,66.40
2023-01-09T20:23:29.458Z,66.35
2023-01-09T20:25:59.777Z,66.44
2023-01-09T20:28:29.439Z,66.56
2023-01-09T20:30:57.289Z,66.58
2023-01-09T20:33:25.229Z,66.69
2023-01-09T20:35:53.091Z,66.98
2023-01-09T20:38:20.986Z,66.61
2023-01-09T20:40:48.815Z,66.98
2023-01-09T20:43:17.430Z,66.52
2023-01-09T20:45:46.668Z,66.87
2023-01-09T20:48:14.627Z,66.99
2023-01-09T20:50:42.601Z,66.15
2023-01-09T20:53:10.395Z,66.12
2023-01-09T20:55:38.251Z,66.36
2023-01-09T20:58:06.046Z,66.56
2023-01-09T21:00:33.888Z,65.79
2023-01-09T21:03:04.465Z,65.34
2023-01-09T21:05:32.269Z,65.34
2023-01-09T21:08:00.091Z,65.46
2023-01-09T21:10:27.929Z,65.21
2023-01-09T21:12:55.722Z,65.68
2023-01-09T21:15:24.590Z,65.09
2023-01-09T21:17:52.517Z,65.64
2023-01-09T21:20:21.931Z,65.76
2023-01-09T21:22:50.357Z,65.83
2023-01-09T21:25:18.232Z,65.62
2023-01-09T21:27:47.463Z,66.14
2023-01-09T21:30:15.686Z,65.98
2023-01-09T21:32:43.521Z,66.28
2023-01-09T21:35:11.305Z,65.87
2023-01-09T21:37:40.533Z,66.37
2023-01-09T21:40:13.100Z,66.11
2023-01-09T21:42:58.208Z,66.38
2023-01-09T21:45:42.807Z,66.52
2023-01-09T21:48:10.661Z,66.52
2023-01-09T21:50:38.475Z,66.94
2023-01-09T21:53:07.829Z,66.25
2023-01-09T21:55:36.021Z,66.22
2023-01-09T21:58:04.332Z,66.67
2023-01-09T22:00:32.717Z,66.61
2023-01-09T22:03:01.261Z,66.69
2023-01-09T22:05:29.132Z,66.75
2023-01-09T22:07:57.356Z,66.67
2023-01-09T22:10:26.700Z,67.06
2023-01-09T22:13:14.114Z,66.71
2023-01-09T22:15:42.205Z,66.61
2023-01-09T22:18:10.155Z,66.51
2023-01-09T22:20:37.961Z,67.06
2023-01-09T22:23:05.818Z,66.81
2023-01-09T22:25:37.254Z,67.21
2023-01-09T22:28:05.365Z,66.54
2023-01-09T22:30:33.374Z,66.87
2023-01-09T22:33:02.752Z,66.62
2023-01-09T22:35:30.512Z,66.84
2023-01-09T22:37:58.327Z,66.35
2023-01-09T22:40:26.151Z,66.82
2023-01-09T22:42:55.730Z,66.62
2023-01-09T22:45:23.746Z,66.33
2023-01-09T22:47:51.609Z,66.74
2023-01-09T22:50:19.762Z,66.81
2023-01-09T22:52:48.535Z,66.29
2023-01-09T22:55:16.864Z,66.83
2023-01-09T22:57:44.790Z,66.30
2023-01-09T23:00:15.810Z,66.45
2023-01-09T23:02:43.662Z,66.44
2023-01-09T23:05:11.740Z,66.04
2023-01-09T23:07:39.604Z,66.42
2023-01-09T23:10:08.598Z,66.54
2023-01-09T23:12:36.409Z,66.12
2023-01-09T23:15:04.376Z,66.42
2023-01-09T23:17:33.574Z,66.57
2023-01-09T23:20:01.421Z,65.85
2023-01-09T23:22:29.215Z,66.19
2023-01-09T23:24:56.980Z,66.37
2023-01-09T23:27:24.801Z,66.13
2023-01-09T23:29:52.597Z,66.00
2023-01-09T23:32:20.433Z,66.11
2023-01-09T23:34:50.461Z,65.93
2023-01-09T23:37:18.298Z,65.89
2023-01-09T23:39:46.122Z,66.04
2023-01-09T23:42:31.723Z,66.35
2023-01-09T23:44:59.540Z,66.00
2023-01-09T23:47:27.326Z,66.17
2023-01-09T23:49:56.563Z,66.22
2023-01-09T23:52:24.451Z,65.75
2023-01-09T23:54:53.963Z,65.84
2023-01-09T23:57:21.758Z,65.54
2023-01-09T23:59:49.558Z,66.47
